createdAt,value
2017-11-29T00:01:42.829Z,23.58
2017-11-29T00:04:10.650Z,25.10
2017-11-29T00:06:38.473Z,29.80
2017-11-29T00:09:06.331Z,31.20
2017-11-29T00:11:34.179Z,21.15
2017-11-29T00:14:02.072Z,27.33
2017-11-29T00:16:29.918Z,28.50
2017-11-29T00:18:57.815Z,27.05
2017-11-29T00:21:25.641Z,28.00
2017-11-29T00:23:53.510Z,29.77
2017-11-29T00:26:21.380Z,29.12
2017-11-29T00:28:49.263Z,31.05
2017-11-29T00:31:17.109Z,18.95
2017-11-29T00:33:44.946Z,29.20
2017-11-29T00:36:12.786Z,33.38
2017-11-29T00:38:40.614Z,26.45
2017-11-29T00:41:08.500Z,24.02
2017-11-29T00:43:36.333Z,22.15
2017-11-29T00:46:04.166Z,29.77
2017-11-29T00:48:32.005Z,29.42
2017-11-29T00:50:59.853Z,27.85
2017-11-29T00:53:27.718Z,30.55
2017-11-29T00:55:55.574Z,32.05
2017-11-29T00:58:23.410Z,23.15
2017-11-29T01:00:51.270Z,21.70
2017-11-29T01:03:19.105Z,28.70
2017-11-29T01:05:46.982Z,26.37
2017-11-29T01:08:14.841Z,25.75
2017-11-29T01:10:42.834Z,27.08
2017-11-29T01:13:10.726Z,31.23
2017-11-29T01:15:38.571Z,21.70
2017-11-29T01:18:06.486Z,28.48
2017-11-29T01:20:34.374Z,24.37
2017-11-29T01:23:02.199Z,29.40
2017-11-29T01:25:30.047Z,28.02
2017-11-29T01:27:57.882Z,29.77
2017-11-29T01:30:25.738Z,30.27
2017-11-29T01:32:53.586Z,31.48
2017-11-29T01:35:21.430Z,32.08
2017-11-29T01:37:49.265Z,32.33
2017-11-29T01:40:17.098Z,27.50
2017-11-29T01:42:44.965Z,31.33
2017-11-29T01:45:12.830Z,33.95
2017-11-29T01:47:40.729Z,31.10
2017-11-29T01:50:08.564Z,33.17
2017-11-29T01:52:36.393Z,33.33
2017-11-29T01:55:04.214Z,31.90
2017-11-29T01:57:32.061Z,28.75
2017-11-29T01:59:59.947Z,31.33
2017-11-29T02:02:27.838Z,32.22
2017-11-29T02:04:55.729Z,33.45
2017-11-29T02:07:23.598Z,33.45
2017-11-29T02:09:51.457Z,31.35
2017-11-29T02:12:19.307Z,33.08
2017-11-29T02:14:47.172Z,34.60
2017-11-29T02:17:15.059Z,28.85
2017-11-29T02:19:42.909Z,34.95
2017-11-29T02:22:10.761Z,35.55
2017-11-29T02:24:38.630Z,34.67
2017-11-29T02:27:06.496Z,26.95
2017-11-29T02:29:34.364Z,32.38
2017-11-29T02:32:02.224Z,33.78
2017-11-29T02:34:30.079Z,32.72
2017-11-29T02:36:57.962Z,29.92
2017-11-29T02:39:25.830Z,30.52
2017-11-29T02:41:59.698Z,34.50
2017-11-29T02:44:27.525Z,36.25
2017-11-29T02:46:55.365Z,36.60
2017-11-29T02:49:23.205Z,26.12
2017-11-29T02:51:51.050Z,34.33
2017-11-29T02:54:18.914Z,32.58
2017-11-29T02:56:46.773Z,33.22
2017-11-29T02:59:14.631Z,32.80
2017-11-29T03:01:42.491Z,33.95
2017-11-29T03:04:10.368Z,34.63
2017-11-29T03:06:38.216Z,37.15
2017-11-29T03:09:06.062Z,36.25
2017-11-29T03:11:33.920Z,31.83
2017-11-29T03:14:01.841Z,36.80
2017-11-29T03:16:29.676Z,27.80
2017-11-29T03:18:57.523Z,23.85
2017-11-29T03:21:25.378Z,32.80
2017-11-29T03:23:53.259Z,35.42
2017-11-29T03:26:21.113Z,35.40
2017-11-29T03:28:48.931Z,35.08
2017-11-29T03:31:16.768Z,35.25
2017-11-29T03:33:44.617Z,33.05
2017-11-29T03:36:12.482Z,34.13
2017-11-29T03:38:40.345Z,35.90
2017-11-29T03:41:08.238Z,34.28
2017-11-29T03:43:36.064Z,36.88
2017-11-29T03:46:03.897Z,33.80
2017-11-29T03:48:31.759Z,28.77
2017-11-29T03:50:59.644Z,33.92
2017-11-29T03:53:27.491Z,34.38
2017-11-29T03:55:55.359Z,35.90
2017-11-29T03:58:23.205Z,36.50
2017-11-29T04:00:51.062Z,33.20
2017-11-29T04:03:18.915Z,34.17
2017-11-29T04:05:46.755Z,34.85
2017-11-29T04:08:14.578Z,36.22
2017-11-29T04:10:42.434Z,31.45
2017-11-29T04:13:10.341Z,31.87
2017-11-29T04:15:38.191Z,36.50
2017-11-29T04:18:06.061Z,34.78
2017-11-29T04:20:33.922Z,34.28
2017-11-29T04:23:01.798Z,35.53
2017-11-29T04:25:29.655Z,35.25
2017-11-29T04:27:57.544Z,34.75
2017-11-29T04:30:25.396Z,33.45
2017-11-29T04:32:53.281Z,35.22
2017-11-29T04:35:21.133Z,36.65
2017-11-29T04:37:49.017Z,34.63
2017-11-29T04:40:16.865Z,35.70
2017-11-29T04:42:44.772Z,32.13
2017-11-29T04:45:12.635Z,35.40
2017-11-29T04:47:40.485Z,31.30
2017-11-29T04:50:08.356Z,32.92
2017-11-29T04:52:36.207Z,33.97
2017-11-29T04:55:04.089Z,31.45
2017-11-29T04:57:31.955Z,34.13
2017-11-29T04:59:59.821Z,36.85
2017-11-29T05:02:27.673Z,24.75
2017-11-29T05:04:55.524Z,36.63
2017-11-29T05:07:23.403Z,36.53
2017-11-29T05:09:51.279Z,36.08
2017-11-29T05:12:19.141Z,33.67
2017-11-29T05:14:46.982Z,30.62
2017-11-29T05:17:14.832Z,34.42
2017-11-29T05:19:42.750Z,36.28
2017-11-29T05:22:10.630Z,35.60
2017-11-29T05:24:38.702Z,34.55
2017-11-29T05:27:06.623Z,34.97
2017-11-29T05:29:34.507Z,34.70
2017-11-29T05:32:02.379Z,37.17
2017-11-29T05:34:30.242Z,32.83
2017-11-29T05:36:58.178Z,27.33
2017-11-29T05:39:26.118Z,39.25
2017-11-29T05:41:54.797Z,37.60
2017-11-29T05:44:23.916Z,35.28
2017-11-29T05:46:51.773Z,34.42
2017-11-29T05:49:19.626Z,35.97
2017-11-29T05:51:47.468Z,36.92
2017-11-29T05:54:15.321Z,33.92
2017-11-29T05:56:43.157Z,35.60
2017-11-29T05:59:11.056Z,28.90
2017-11-29T06:01:38.920Z,38.22
2017-11-29T06:04:06.935Z,32.10
2017-11-29T06:06:34.853Z,38.90
2017-11-29T06:09:02.723Z,28.05
2017-11-29T06:11:30.583Z,39.97
2017-11-29T06:13:58.485Z,32.60
2017-11-29T06:16:26.361Z,40.75
2017-11-29T06:18:54.213Z,30.42
2017-11-29T06:21:22.067Z,38.40
2017-11-29T06:23:49.938Z,36.22
2017-11-29T06:26:17.793Z,41.10
2017-11-29T06:28:45.698Z,37.50
2017-11-29T06:31:13.577Z,41.72
2017-11-29T06:33:41.432Z,42.17
2017-11-29T06:36:09.300Z,41.00
2017-11-29T06:38:37.286Z,43.72
2017-11-29T06:41:05.242Z,40.72
2017-11-29T06:43:33.191Z,40.20
2017-11-29T06:46:01.132Z,40.25
2017-11-29T06:48:29.063Z,34.35
2017-11-29T06:50:56.927Z,42.20
2017-11-29T06:53:24.767Z,40.55
2017-11-29T06:55:52.883Z,41.65
2017-11-29T06:58:20.813Z,44.42
2017-11-29T07:00:48.709Z,44.92
2017-11-29T07:03:16.586Z,39.40
2017-11-29T07:05:44.450Z,45.00
2017-11-29T07:08:12.350Z,43.80
2017-11-29T07:10:40.183Z,45.40
2017-11-29T07:13:08.269Z,42.78
2017-11-29T07:15:36.364Z,42.60
2017-11-29T07:18:04.209Z,35.42
2017-11-29T07:20:32.478Z,42.28
2017-11-29T07:23:00.855Z,43.53
2017-11-29T07:25:29.360Z,42.25
2017-11-29T07:27:57.608Z,43.72
2017-11-29T07:30:25.710Z,38.97
2017-11-29T07:32:54.057Z,29.08
2017-11-29T07:35:21.990Z,41.47
2017-11-29T07:37:49.891Z,44.58
2017-11-29T07:40:17.800Z,46.22
2017-11-29T07:42:45.673Z,46.72
2017-11-29T07:45:13.557Z,47.22
2017-11-29T07:47:41.413Z,40.05
2017-11-29T07:50:09.270Z,38.40
2017-11-29T07:52:37.158Z,49.38
2017-11-29T07:55:05.026Z,50.15
2017-11-29T07:57:32.985Z,45.85
2017-11-29T08:00:00.832Z,48.08
2017-11-29T08:02:28.674Z,50.50
2017-11-29T08:04:56.525Z,47.95
2017-11-29T08:07:24.354Z,49.05
2017-11-29T08:09:52.213Z,52.05
2017-11-29T08:12:20.073Z,40.47
2017-11-29T08:14:48.274Z,48.72
2017-11-29T08:17:16.351Z,45.58
2017-11-29T08:19:44.354Z,45.53
2017-11-29T08:22:12.244Z,52.78
2017-11-29T08:24:40.130Z,47.60
2017-11-29T08:27:07.962Z,49.22
2017-11-29T08:29:35.810Z,48.97
2017-11-29T08:32:03.666Z,48.38
2017-11-29T08:34:31.590Z,37.22
2017-11-29T08:36:59.435Z,46.97
2017-11-29T08:39:27.330Z,44.38
2017-11-29T08:41:55.167Z,47.28
2017-11-29T08:44:23.002Z,45.97
2017-11-29T08:46:50.845Z,43.78
2017-11-29T08:49:18.686Z,47.33
2017-11-29T08:51:46.534Z,47.30
2017-11-29T08:54:14.370Z,44.60
2017-11-29T08:56:42.234Z,40.90
2017-11-29T08:59:10.092Z,36.75
2017-11-29T09:01:37.933Z,48.47
2017-11-29T09:04:05.786Z,48.47
2017-11-29T09:06:33.618Z,40.08
2017-11-29T09:09:01.438Z,44.50
2017-11-29T09:11:29.337Z,45.60
2017-11-29T09:13:57.199Z,44.13
2017-11-29T09:16:25.057Z,47.72
2017-11-29T09:18:52.891Z,35.22
2017-11-29T09:21:20.756Z,45.10
2017-11-29T09:23:48.607Z,37.45
2017-11-29T09:26:16.415Z,44.97
2017-11-29T09:28:44.310Z,41.67
2017-11-29T09:31:12.195Z,36.83
2017-11-29T09:33:40.035Z,42.13
2017-11-29T09:36:07.882Z,41.25
2017-11-29T09:38:35.734Z,33.80
2017-11-29T09:41:03.556Z,40.85
2017-11-29T09:43:31.380Z,40.22
2017-11-29T09:45:59.225Z,40.85
2017-11-29T09:48:27.072Z,38.38
2017-11-29T09:50:54.899Z,40.58
2017-11-29T09:53:22.723Z,36.65
2017-11-29T09:55:50.572Z,31.92
2017-11-29T09:58:18.423Z,35.20
2017-11-29T10:00:46.262Z,38.65
2017-11-29T10:03:14.139Z,38.92
2017-11-29T10:05:42.007Z,35.10
2017-11-29T10:08:09.857Z,26.12
2017-11-29T10:10:37.707Z,24.33
2017-11-29T10:13:05.569Z,31.77
2017-11-29T10:15:33.419Z,19.83
2017-11-29T10:18:01.273Z,33.45
2017-11-29T10:20:29.111Z,35.25
2017-11-29T10:22:56.977Z,32.28
2017-11-29T10:25:24.888Z,34.72
2017-11-29T10:27:52.747Z,32.40
2017-11-29T10:30:20.594Z,31.27
2017-11-29T10:32:48.457Z,29.98
2017-11-29T10:35:16.297Z,32.72
2017-11-29T10:37:44.152Z,35.22
2017-11-29T10:40:12.012Z,33.67
2017-11-29T10:42:39.882Z,34.20
2017-11-29T10:45:07.744Z,27.62
2017-11-29T10:47:36.411Z,33.88
2017-11-29T10:50:04.278Z,37.00
2017-11-29T10:52:32.126Z,34.80
2017-11-29T10:54:59.994Z,30.12
2017-11-29T10:57:27.858Z,36.22
2017-11-29T10:59:55.728Z,35.45
2017-11-29T11:02:23.627Z,30.40
2017-11-29T11:04:51.477Z,32.72
2017-11-29T11:07:19.341Z,30.42
2017-11-29T11:09:47.199Z,33.72
2017-11-29T11:12:15.034Z,28.48
2017-11-29T11:14:43.719Z,31.50
2017-11-29T11:17:11.565Z,31.58
2017-11-29T11:19:39.426Z,35.92
2017-11-29T11:22:07.276Z,21.98
2017-11-29T11:24:35.158Z,25.23
2017-11-29T11:27:02.999Z,36.58
2017-11-29T11:29:30.849Z,35.88
2017-11-29T11:31:58.684Z,31.62
2017-11-29T11:34:26.567Z,34.70
2017-11-29T11:36:54.403Z,22.75
2017-11-29T11:39:22.250Z,34.88
2017-11-29T11:41:50.103Z,32.08
2017-11-29T11:44:17.958Z,34.58
2017-11-29T11:46:45.823Z,35.15
2017-11-29T11:49:13.674Z,31.98
2017-11-29T11:51:41.504Z,34.28
2017-11-29T11:54:09.347Z,31.90
2017-11-29T11:56:37.186Z,35.53
2017-11-29T11:59:05.040Z,32.22
2017-11-29T12:01:32.898Z,25.88
2017-11-29T12:04:00.731Z,22.87
2017-11-29T12:06:28.575Z,32.80
2017-11-29T12:08:56.446Z,32.22
2017-11-29T12:11:24.294Z,32.08
2017-11-29T12:13:52.157Z,32.95
2017-11-29T12:16:20.017Z,28.77
2017-11-29T12:18:48.246Z,30.60
2017-11-29T12:21:16.091Z,31.95
2017-11-29T12:23:43.960Z,29.48
2017-11-29T12:26:11.841Z,23.38
2017-11-29T12:28:39.984Z,33.20
2017-11-29T12:31:07.845Z,36.42
2017-11-29T12:33:35.715Z,31.17
2017-11-29T12:36:03.553Z,33.67
2017-11-29T12:38:31.416Z,33.20
2017-11-29T12:40:59.311Z,24.98
2017-11-29T12:43:27.155Z,31.93
2017-11-29T12:45:55.082Z,23.48
2017-11-29T12:48:29.060Z,24.98
2017-11-29T12:51:03.118Z,34.00
2017-11-29T12:53:30.971Z,25.50
2017-11-29T12:55:58.898Z,32.83
2017-11-29T12:58:26.754Z,34.63
2017-11-29T13:00:54.620Z,31.73
2017-11-29T13:03:23.258Z,34.45
2017-11-29T13:05:51.120Z,35.90
2017-11-29T13:08:18.962Z,35.63
2017-11-29T13:10:46.853Z,33.58
2017-11-29T13:13:14.725Z,37.45
2017-11-29T13:15:42.594Z,33.28
2017-11-29T13:18:10.461Z,33.07
2017-11-29T13:20:38.330Z,38.00
2017-11-29T13:23:06.246Z,32.35
2017-11-29T13:25:34.085Z,31.70
2017-11-29T13:28:01.984Z,35.77
2017-11-29T13:30:29.894Z,33.03
2017-11-29T13:32:57.775Z,31.60
2017-11-29T13:35:25.622Z,29.58
2017-11-29T13:37:53.501Z,32.67
2017-11-29T13:40:21.326Z,31.92
2017-11-29T13:42:49.182Z,35.00
2017-11-29T13:45:17.022Z,35.75
2017-11-29T13:47:44.911Z,33.97
2017-11-29T13:50:12.754Z,34.87
2017-11-29T13:52:40.638Z,30.10
2017-11-29T13:55:08.485Z,30.50
2017-11-29T13:57:36.358Z,31.87
2017-11-29T14:00:04.203Z,32.33
2017-11-29T14:02:32.027Z,32.37
2017-11-29T14:04:59.844Z,29.23
2017-11-29T14:07:27.682Z,28.20
2017-11-29T14:09:55.517Z,34.53
2017-11-29T14:12:23.363Z,33.35
2017-11-29T14:14:51.196Z,31.40
2017-11-29T14:17:19.073Z,32.25
2017-11-29T14:19:46.930Z,29.60
2017-11-29T14:22:14.793Z,29.63
2017-11-29T14:24:42.663Z,30.30
2017-11-29T14:27:10.537Z,29.58
2017-11-29T14:29:38.382Z,27.15
2017-11-29T14:32:07.167Z,31.50
2017-11-29T14:34:35.014Z,34.17
2017-11-29T14:37:02.869Z,32.03
2017-11-29T14:39:30.742Z,19.92
2017-11-29T14:41:58.589Z,31.70
2017-11-29T14:44:26.425Z,31.30
2017-11-29T14:46:54.244Z,29.52
2017-11-29T14:49:22.080Z,27.48
2017-11-29T14:51:49.924Z,26.80
2017-11-29T14:54:17.780Z,32.05
2017-11-29T14:56:45.629Z,33.10
2017-11-29T14:59:13.620Z,23.38
2017-11-29T15:01:41.528Z,24.12
2017-11-29T15:04:09.438Z,29.90
2017-11-29T15:06:37.305Z,21.77
2017-11-29T15:09:05.158Z,32.40
2017-11-29T15:11:33.010Z,24.55
2017-11-29T15:14:01.944Z,32.55
2017-11-29T15:16:29.781Z,17.45
2017-11-29T15:18:57.655Z,29.48
2017-11-29T15:21:25.523Z,29.60
2017-11-29T15:23:53.386Z,30.00
2017-11-29T15:26:21.255Z,30.00
2017-11-29T15:28:49.123Z,31.20
2017-11-29T15:31:16.998Z,32.15
2017-11-29T15:33:44.957Z,32.22
2017-11-29T15:36:12.866Z,38.90
2017-11-29T15:38:40.739Z,34.60
2017-11-29T15:41:08.603Z,33.22
2017-11-29T15:43:36.457Z,35.45
2017-11-29T15:46:04.423Z,23.92
2017-11-29T15:48:32.318Z,26.65
2017-11-29T15:51:00.336Z,28.50
2017-11-29T15:53:28.158Z,20.40
2017-11-29T15:55:56.706Z,31.05
2017-11-29T15:58:24.574Z,26.05
2017-11-29T16:00:52.424Z,27.70
2017-11-29T16:03:20.328Z,29.52
2017-11-29T16:05:48.217Z,24.05
2017-11-29T16:08:16.087Z,30.58
2017-11-29T16:10:44.006Z,36.50
2017-11-29T16:13:11.898Z,37.17
2017-11-29T16:15:39.759Z,33.15
2017-11-29T16:18:07.622Z,26.58
2017-11-29T16:20:35.501Z,31.15
2017-11-29T16:23:04.601Z,32.78
2017-11-29T16:25:32.506Z,23.42
2017-11-29T16:28:01.152Z,32.28
2017-11-29T16:30:28.987Z,30.02
2017-11-29T16:32:56.843Z,32.05
2017-11-29T16:35:24.716Z,23.40
2017-11-29T16:37:52.581Z,30.35
2017-11-29T16:40:20.447Z,33.30
2017-11-29T16:42:49.105Z,19.65
2017-11-29T16:45:17.000Z,29.35
2017-11-29T16:47:44.865Z,25.42
2017-11-29T16:50:12.704Z,31.95
2017-11-29T16:52:40.518Z,32.40
2017-11-29T16:55:08.359Z,31.08
2017-11-29T16:57:36.223Z,31.87
2017-11-29T17:00:04.170Z,29.12
2017-11-29T17:02:32.047Z,29.10
2017-11-29T17:04:59.882Z,26.92
2017-11-29T17:07:27.718Z,27.62
2017-11-29T17:09:55.593Z,26.40
2017-11-29T17:12:23.444Z,27.42
2017-11-29T17:14:51.293Z,27.70
2017-11-29T17:17:19.157Z,27.70
2017-11-29T17:19:47.015Z,27.08
2017-11-29T17:22:14.890Z,31.37
2017-11-29T17:24:42.730Z,29.12
2017-11-29T17:27:10.578Z,30.25
2017-11-29T17:29:45.171Z,24.10
2017-11-29T17:32:13.237Z,30.75
2017-11-29T17:34:41.078Z,28.65
2017-11-29T17:37:08.946Z,29.27
2017-11-29T17:39:37.016Z,33.47
2017-11-29T17:42:04.883Z,27.80
2017-11-29T17:44:32.731Z,26.10
2017-11-29T17:47:00.568Z,32.72
2017-11-29T17:49:28.414Z,32.15
2017-11-29T17:51:56.250Z,31.73
2017-11-29T17:54:24.114Z,33.42
2017-11-29T17:56:51.959Z,35.80
2017-11-29T17:59:19.785Z,26.85
2017-11-29T18:01:47.610Z,33.53
2017-11-29T18:04:15.477Z,34.58
2017-11-29T18:06:43.343Z,30.92
2017-11-29T18:09:11.226Z,22.73
2017-11-29T18:11:39.146Z,32.50
2017-11-29T18:14:07.000Z,28.70
2017-11-29T18:16:34.883Z,35.47
2017-11-29T18:19:02.745Z,28.80
2017-11-29T18:21:30.593Z,34.38
2017-11-29T18:23:58.415Z,35.92
2017-11-29T18:26:26.242Z,34.67
2017-11-29T18:28:54.093Z,33.97
2017-11-29T18:31:21.917Z,31.52
2017-11-29T18:33:49.782Z,35.95
2017-11-29T18:36:17.634Z,33.20
2017-11-29T18:38:45.515Z,37.00
2017-11-29T18:41:13.368Z,36.33
2017-11-29T18:43:41.207Z,35.80
2017-11-29T18:46:09.415Z,34.58
2017-11-29T18:48:37.277Z,34.80
2017-11-29T18:51:05.138Z,31.75
2017-11-29T18:53:33.014Z,35.30
2017-11-29T18:56:00.859Z,30.75
2017-11-29T18:58:28.730Z,29.73
2017-11-29T19:00:56.571Z,35.17
2017-11-29T19:03:29.359Z,34.05
2017-11-29T19:05:57.213Z,36.25
2017-11-29T19:08:25.709Z,36.53
2017-11-29T19:10:53.702Z,36.40
2017-11-29T19:13:21.524Z,35.13
2017-11-29T19:15:49.386Z,36.28
2017-11-29T19:18:17.218Z,32.03
2017-11-29T19:20:45.084Z,28.70
2017-11-29T19:23:12.933Z,33.00
2017-11-29T19:25:40.774Z,34.97
2017-11-29T19:28:08.665Z,34.67
2017-11-29T19:30:36.532Z,39.08
2017-11-29T19:33:04.365Z,38.38
2017-11-29T19:35:32.187Z,35.58
2017-11-29T19:38:00.054Z,36.70
2017-11-29T19:40:28.046Z,37.20
2017-11-29T19:42:55.892Z,39.05
2017-11-29T19:45:23.746Z,40.75
2017-11-29T19:47:51.586Z,41.20
2017-11-29T19:50:19.623Z,39.97
2017-11-29T19:52:47.445Z,38.80
2017-11-29T19:55:15.267Z,41.55
2017-11-29T19:57:43.115Z,36.92
2017-11-29T20:00:10.950Z,39.95
2017-11-29T20:02:40.202Z,41.88
2017-11-29T20:05:08.147Z,42.30
2017-11-29T20:07:36.321Z,39.70
2017-11-29T20:10:04.466Z,43.08
2017-11-29T20:12:33.138Z,41.97
2017-11-29T20:15:01.203Z,34.05
2017-11-29T20:17:29.052Z,37.90
2017-11-29T20:19:56.933Z,47.58
2017-11-29T20:22:24.762Z,44.97
2017-11-29T20:24:52.610Z,43.78
2017-11-29T20:27:20.649Z,45.92
2017-11-29T20:29:48.651Z,45.83
2017-11-29T20:32:16.491Z,45.30
2017-11-29T20:34:44.348Z,43.50
2017-11-29T20:37:12.210Z,38.42
2017-11-29T20:39:40.038Z,37.10
2017-11-29T20:42:07.886Z,35.88
2017-11-29T20:44:35.727Z,36.97
2017-11-29T20:47:03.554Z,40.10
2017-11-29T20:49:31.415Z,36.30
2017-11-29T20:51:59.291Z,34.97
2017-11-29T20:54:27.237Z,39.58
2017-11-29T20:56:55.093Z,42.25
2017-11-29T20:59:22.958Z,41.28
2017-11-29T21:01:50.812Z,43.83
2017-11-29T21:04:18.665Z,39.70
2017-11-29T21:06:46.546Z,41.30
2017-11-29T21:09:14.394Z,38.63
2017-11-29T21:11:42.254Z,43.85
2017-11-29T21:14:10.103Z,45.38
2017-11-29T21:16:37.966Z,33.50
2017-11-29T21:19:05.798Z,42.70
2017-11-29T21:21:33.639Z,41.88
2017-11-29T21:24:01.468Z,43.05
2017-11-29T21:26:29.329Z,44.35
2017-11-29T21:28:57.173Z,38.25
2017-11-29T21:31:25.046Z,41.42
2017-11-29T21:33:52.926Z,42.50
2017-11-29T21:36:20.779Z,43.72
2017-11-29T21:38:48.607Z,39.70
2017-11-29T21:41:16.462Z,45.03
2017-11-29T21:43:44.285Z,40.95
2017-11-29T21:46:12.135Z,42.25
2017-11-29T21:48:39.982Z,41.65
2017-11-29T21:51:07.850Z,44.92
2017-11-29T21:53:35.693Z,44.80
2017-11-29T21:56:03.558Z,44.90
2017-11-29T21:58:31.446Z,43.42
2017-11-29T22:00:59.307Z,39.78
2017-11-29T22:03:27.175Z,40.53
2017-11-29T22:05:55.016Z,44.22
2017-11-29T22:08:22.889Z,43.17
2017-11-29T22:10:50.719Z,46.45
2017-11-29T22:13:18.575Z,42.90
2017-11-29T22:15:46.411Z,45.45
2017-11-29T22:18:14.279Z,41.85
2017-11-29T22:20:42.115Z,37.88
2017-11-29T22:23:09.945Z,46.15
2017-11-29T22:25:37.812Z,38.13
2017-11-29T22:28:05.677Z,45.90
2017-11-29T22:30:33.503Z,48.30
2017-11-29T22:33:01.380Z,46.83
2017-11-29T22:35:29.239Z,42.90
2017-11-29T22:37:57.089Z,39.58
2017-11-29T22:40:24.937Z,46.45
2017-11-29T22:42:52.813Z,46.67
2017-11-29T22:45:20.682Z,41.15
2017-11-29T22:47:49.335Z,45.05
2017-11-29T22:50:17.174Z,45.75
2017-11-29T22:52:45.044Z,49.22
2017-11-29T22:55:12.884Z,44.40
2017-11-29T22:57:40.767Z,38.42
2017-11-29T23:00:08.624Z,47.05
2017-11-29T23:02:36.475Z,42.45
2017-11-29T23:05:04.314Z,44.75
2017-11-29T23:07:32.186Z,45.53
2017-11-29T23:10:00.079Z,45.25
2017-11-29T23:12:27.945Z,42.45
2017-11-29T23:14:55.806Z,42.92
2017-11-29T23:17:23.650Z,40.78
2017-11-29T23:19:51.517Z,40.45
2017-11-29T23:22:19.349Z,36.50
2017-11-29T23:24:47.213Z,38.58
2017-11-29T23:27:15.069Z,44.95
2017-11-29T23:29:42.937Z,38.20
2017-11-29T23:32:10.795Z,40.67
2017-11-29T23:34:38.667Z,41.10
2017-11-29T23:37:06.533Z,45.38
2017-11-29T23:39:34.394Z,41.55
2017-11-29T23:42:02.267Z,41.72
2017-11-29T23:44:30.178Z,41.22
2017-11-29T23:46:58.051Z,42.03
2017-11-29T23:49:25.894Z,40.00
2017-11-29T23:51:53.763Z,40.83
2017-11-29T23:54:21.610Z,39.47
2017-11-29T23:56:49.478Z,37.53
2017-11-29T23:59:17.341Z,41.17
